createdAt,value
2018-07-16T00:01:20.869Z,80.00
2018-07-16T00:03:49.387Z,80.00
2018-07-16T00:06:17.926Z,79.90
2018-07-16T00:08:46.460Z,79.90
2018-07-16T00:11:14.934Z,80.30
2018-07-16T00:13:43.485Z,80.10
2018-07-16T00:16:11.998Z,80.30
2018-07-16T00:18:40.493Z,80.60
2018-07-16T00:21:09.620Z,80.60
2018-07-16T00:23:38.135Z,80.80
2018-07-16T00:26:06.693Z,81.20
2018-07-16T00:28:35.197Z,81.20
2018-07-16T00:31:03.715Z,81.20
2018-07-16T00:33:32.452Z,81.00
2018-07-16T00:36:00.960Z,81.20
2018-07-16T00:38:29.490Z,80.90
2018-07-16T00:40:58.093Z,81.00
2018-07-16T00:43:26.660Z,81.30
2018-07-16T00:45:55.266Z,81.50
2018-07-16T00:48:23.756Z,81.20
2018-07-16T00:50:52.256Z,80.90
2018-07-16T00:53:20.739Z,80.80
2018-07-16T00:55:49.376Z,80.90
2018-07-16T00:58:17.734Z,81.00
2018-07-16T01:00:46.220Z,81.00
2018-07-16T01:03:14.695Z,81.20
2018-07-16T01:05:43.175Z,81.70
2018-07-16T01:08:11.698Z,81.90
2018-07-16T01:10:40.192Z,81.70
2018-07-16T01:13:08.724Z,81.60
2018-07-16T01:15:37.363Z,81.40
2018-07-16T01:18:06.167Z,81.70
2018-07-16T01:20:34.777Z,82.00
2018-07-16T01:23:03.267Z,82.30
2018-07-16T01:25:31.750Z,82.20
2018-07-16T01:28:00.272Z,82.20
2018-07-16T01:30:28.766Z,82.10
2018-07-16T01:32:57.222Z,82.30
2018-07-16T01:35:25.784Z,82.50
2018-07-16T01:37:54.227Z,82.50
2018-07-16T01:40:22.768Z,82.50
2018-07-16T01:42:51.252Z,82.10
2018-07-16T01:45:19.766Z,82.20
2018-07-16T01:47:48.234Z,82.50
2018-07-16T01:50:16.780Z,82.20
2018-07-16T01:52:45.300Z,82.10
2018-07-16T01:55:13.846Z,82.70
2018-07-16T01:57:42.337Z,82.90
2018-07-16T02:00:10.883Z,83.60
2018-07-16T02:02:39.406Z,84.00
2018-07-16T02:05:09.506Z,84.40
2018-07-16T02:07:46.346Z,84.80
2018-07-16T02:10:14.834Z,85.30
2018-07-16T02:12:43.909Z,85.50
2018-07-16T02:15:12.843Z,85.80
2018-07-16T02:20:15.383Z,86.00
2018-07-16T02:22:43.872Z,86.20
2018-07-16T02:25:12.516Z,86.50
2018-07-16T02:27:41.043Z,86.40
2018-07-16T02:30:09.558Z,86.50
2018-07-16T02:32:38.040Z,86.90
2018-07-16T02:35:06.608Z,87.00
2018-07-16T02:37:35.105Z,87.00
2018-07-16T02:40:10.650Z,87.30
2018-07-16T02:42:39.260Z,87.40
2018-07-16T02:45:07.850Z,87.10
2018-07-16T02:47:36.351Z,87.50
2018-07-16T02:50:04.863Z,87.50
2018-07-16T02:52:33.413Z,87.60
2018-07-16T02:55:02.063Z,87.60
2018-07-16T02:57:30.548Z,87.80
2018-07-16T02:59:59.237Z,87.90
2018-07-16T03:02:27.862Z,87.70
2018-07-16T03:04:56.363Z,87.50
2018-07-16T03:07:24.927Z,87.70
2018-07-16T03:09:54.036Z,87.90
2018-07-16T03:12:22.576Z,87.70
2018-07-16T03:14:51.066Z,87.60
2018-07-16T03:17:19.599Z,87.80
2018-07-16T03:19:48.229Z,87.70
2018-07-16T03:22:16.850Z,87.70
2018-07-16T03:24:45.389Z,87.60
2018-07-16T03:27:19.904Z,87.40
2018-07-16T03:29:48.454Z,87.30
2018-07-16T03:32:17.175Z,87.20
2018-07-16T03:34:48.026Z,87.20
2018-07-16T03:37:16.820Z,87.20
2018-07-16T03:39:50.669Z,87.20
2018-07-16T03:42:23.657Z,87.30
2018-07-16T03:44:52.313Z,87.30
2018-07-16T03:47:20.761Z,87.30
2018-07-16T03:49:49.243Z,87.70
2018-07-16T03:52:17.780Z,88.10
2018-07-16T03:54:46.291Z,88.20
2018-07-16T03:57:14.841Z,88.30
2018-07-16T03:59:43.365Z,88.50
2018-07-16T04:02:11.873Z,88.50
2018-07-16T04:04:40.386Z,88.70
2018-07-16T04:07:08.899Z,88.70
2018-07-16T04:09:37.421Z,88.90
2018-07-16T04:12:05.950Z,88.80
2018-07-16T04:14:34.486Z,88.80
2018-07-16T04:17:02.986Z,88.90
2018-07-16T04:19:31.536Z,89.10
2018-07-16T04:22:00.067Z,89.10
2018-07-16T04:24:28.595Z,89.00
2018-07-16T04:26:57.088Z,89.00
2018-07-16T04:29:25.596Z,89.00
2018-07-16T04:31:54.951Z,89.00
2018-07-16T04:34:23.527Z,88.90
2018-07-16T04:36:52.101Z,89.00
2018-07-16T04:39:20.656Z,88.40
2018-07-16T04:41:49.124Z,88.60
2018-07-16T04:44:17.685Z,88.60
2018-07-16T04:46:46.143Z,88.70
2018-07-16T04:49:14.634Z,88.70
2018-07-16T04:51:43.148Z,88.70
2018-07-16T04:54:16.505Z,88.60
2018-07-16T04:56:45.169Z,88.80
2018-07-16T04:59:13.663Z,88.20
2018-07-16T05:01:42.323Z,87.90
2018-07-16T05:04:10.913Z,87.70
2018-07-16T05:06:39.406Z,87.80
2018-07-16T05:09:07.922Z,87.80
2018-07-16T05:11:36.351Z,87.80
2018-07-16T05:14:04.962Z,87.60
2018-07-16T05:16:33.446Z,87.70
2018-07-16T05:19:01.971Z,87.60
2018-07-16T05:21:30.437Z,87.50
2018-07-16T05:23:58.993Z,87.30
2018-07-16T05:26:27.455Z,87.20
2018-07-16T05:28:56.654Z,87.10
2018-07-16T05:31:25.138Z,86.90
2018-07-16T05:33:53.685Z,86.70
2018-07-16T05:36:22.154Z,85.60
2018-07-16T05:38:50.640Z,85.10
2018-07-16T05:41:19.307Z,85.00
2018-07-16T05:43:47.827Z,84.10
2018-07-16T05:46:16.387Z,83.40
2018-07-16T05:48:44.875Z,82.90
2018-07-16T05:51:13.370Z,82.80
2018-07-16T05:53:41.937Z,82.60
2018-07-16T05:56:10.470Z,82.30
2018-07-16T05:58:38.958Z,81.40
2018-07-16T06:01:07.620Z,80.70
2018-07-16T06:03:36.132Z,80.40
2018-07-16T06:06:04.671Z,80.00
2018-07-16T06:08:33.976Z,78.20
2018-07-16T06:11:02.529Z,77.70
2018-07-16T06:13:31.047Z,77.80
2018-07-16T06:15:59.561Z,77.80
2018-07-16T06:18:28.123Z,77.50
2018-07-16T06:20:56.609Z,76.60
2018-07-16T06:23:25.104Z,76.60
2018-07-16T06:25:53.657Z,75.50
2018-07-16T06:28:22.122Z,76.40
2018-07-16T06:30:50.618Z,76.60
2018-07-16T06:33:19.089Z,76.40
2018-07-16T06:35:47.635Z,74.30
2018-07-16T06:38:16.098Z,74.40
2018-07-16T06:40:45.107Z,74.70
2018-07-16T06:43:13.376Z,74.20
2018-07-16T06:45:41.937Z,74.50
2018-07-16T06:48:10.449Z,73.70
2018-07-16T06:50:39.101Z,74.00
2018-07-16T06:53:07.602Z,75.20
2018-07-16T06:55:36.223Z,75.50
2018-07-16T06:58:04.773Z,75.70
2018-07-16T07:00:33.445Z,75.80
2018-07-16T07:03:01.917Z,76.10
2018-07-16T07:05:30.430Z,76.00
2018-07-16T07:07:58.969Z,76.40
2018-07-16T07:10:27.463Z,76.50
2018-07-16T07:12:55.994Z,76.90
2018-07-16T07:15:24.514Z,77.00
2018-07-16T07:17:53.000Z,76.80
2018-07-16T07:20:21.583Z,76.30
2018-07-16T07:22:50.544Z,76.60
2018-07-16T07:25:19.159Z,76.40
2018-07-16T07:27:47.683Z,76.50
2018-07-16T07:30:16.242Z,76.20
2018-07-16T07:32:44.798Z,76.80
2018-07-16T07:35:13.476Z,77.50
2018-07-16T07:37:41.888Z,81.20
2018-07-16T07:40:10.558Z,83.90
2018-07-16T07:45:39.127Z,88.20
2018-07-16T07:48:07.688Z,88.80
2018-07-16T07:50:36.193Z,88.40
2018-07-16T07:53:04.799Z,87.80
2018-07-16T07:55:33.358Z,88.20
2018-07-16T07:58:02.962Z,88.40
2018-07-16T08:00:31.472Z,88.80
2018-07-16T08:03:00.129Z,89.90
2018-07-16T08:05:28.731Z,89.40
2018-07-16T08:07:57.316Z,90.20
2018-07-16T08:10:25.916Z,89.70
2018-07-16T08:12:55.350Z,88.70
2018-07-16T08:15:23.920Z,90.10
2018-07-16T08:17:52.450Z,91.00
2018-07-16T08:20:20.987Z,90.70
2018-07-16T08:22:49.477Z,90.50
2018-07-16T08:25:18.053Z,89.70
2018-07-16T08:27:46.523Z,90.70
2018-07-16T08:30:15.010Z,91.10
2018-07-16T08:32:43.549Z,91.20
2018-07-16T08:35:12.095Z,91.70
2018-07-16T08:37:40.675Z,90.90
2018-07-16T08:40:09.290Z,91.70
2018-07-16T08:42:38.582Z,91.50
2018-07-16T08:45:07.191Z,91.50
2018-07-16T08:47:35.719Z,91.70
2018-07-16T08:50:04.435Z,91.40
2018-07-16T08:52:32.988Z,92.30
2018-07-16T08:55:01.583Z,92.30
2018-07-16T08:57:30.080Z,92.40
2018-07-16T09:06:41.764Z,91.70
2018-07-16T09:09:10.374Z,91.70
2018-07-16T09:11:38.959Z,89.40
2018-07-16T09:16:36.837Z,88.00
2018-07-16T09:19:05.390Z,87.10
2018-07-16T09:21:33.857Z,86.70
2018-07-16T09:24:02.451Z,86.00
2018-07-16T09:26:31.183Z,87.00
2018-07-16T09:28:59.651Z,85.10
2018-07-16T09:31:28.285Z,85.40
2018-07-16T09:33:56.768Z,84.70
2018-07-16T09:36:25.371Z,84.00
2018-07-16T09:38:53.995Z,83.90
2018-07-16T09:41:22.539Z,83.20
2018-07-16T09:43:52.748Z,82.70
2018-07-16T09:46:21.275Z,81.40
2018-07-16T09:52:39.522Z,82.60
2018-07-16T09:55:09.500Z,80.40
2018-07-16T09:57:41.113Z,78.10
2018-07-16T10:00:13.273Z,78.70
2018-07-16T10:02:47.019Z,74.70
2018-07-16T10:05:31.281Z,75.80
2018-07-16T10:08:02.845Z,75.30
2018-07-16T10:10:37.343Z,70.40
2018-07-16T10:13:08.650Z,68.00
2018-07-16T10:15:38.809Z,72.90
2018-07-16T10:18:08.960Z,65.50
2018-07-16T10:20:40.172Z,68.50
2018-07-16T10:23:15.222Z,64.80
2018-07-16T10:25:47.540Z,68.80
2018-07-16T10:28:20.859Z,67.80
2018-07-16T10:30:53.453Z,68.40
2018-07-16T10:33:25.845Z,68.90
2018-07-16T10:36:01.348Z,66.40
2018-07-16T10:38:32.568Z,64.20
2018-07-16T10:41:01.352Z,61.50
2018-07-16T10:43:30.066Z,62.70
2018-07-16T10:45:58.576Z,62.50
2018-07-16T10:48:27.091Z,60.70
2018-07-16T10:50:55.597Z,61.70
2018-07-16T10:55:52.310Z,61.60
2018-07-16T10:58:20.791Z,61.20
2018-07-16T11:00:49.336Z,59.90
2018-07-16T11:03:17.932Z,57.70
2018-07-16T11:05:46.553Z,58.10
2018-07-16T11:08:15.099Z,56.80
2018-07-16T11:10:43.594Z,56.90
2018-07-16T11:13:12.068Z,54.50
2018-07-16T11:15:40.655Z,54.20
2018-07-16T11:18:09.219Z,53.40
2018-07-16T11:20:37.715Z,54.50
2018-07-16T11:23:06.352Z,54.80
2018-07-16T11:25:34.894Z,50.80
2018-07-16T11:28:03.400Z,49.00
2018-07-16T11:30:31.886Z,50.60
2018-07-16T11:33:03.181Z,48.90
2018-07-16T12:48:10.719Z,27.30
2018-07-16T12:50:39.468Z,26.30
2018-07-16T12:53:08.160Z,27.80
2018-07-16T13:59:40.752Z,26.50
2018-07-16T14:02:09.264Z,27.00
2018-07-16T14:04:37.739Z,27.10
2018-07-16T15:10:48.397Z,31.70
2018-07-16T15:13:16.848Z,32.20
2018-07-16T16:19:02.926Z,35.10
2018-07-16T16:21:31.615Z,34.80
2018-07-16T16:24:00.051Z,35.10
2018-07-16T17:29:02.959Z,39.20
2018-07-16T17:31:32.242Z,37.20
2018-07-16T17:34:00.793Z,38.00
2018-07-16T18:40:19.363Z,62.10
2018-07-16T18:42:47.947Z,60.80
2018-07-16T18:45:16.420Z,61.00
2018-07-16T19:48:51.455Z,76.80
2018-07-16T19:51:20.015Z,75.70
2018-07-16T19:53:48.559Z,72.60
2018-07-16T20:38:57.898Z,75.70
2018-07-16T20:41:28.889Z,76.50
2018-07-16T20:43:59.297Z,76.20
2018-07-16T20:46:30.819Z,76.70
2018-07-16T20:49:03.941Z,75.30
2018-07-16T20:51:37.302Z,75.70
2018-07-16T20:54:06.428Z,74.90
2018-07-16T20:56:35.845Z,74.90
2018-07-16T20:59:04.994Z,76.70
2018-07-16T21:01:33.609Z,77.70
2018-07-16T21:04:03.548Z,78.00
2018-07-16T21:06:32.321Z,77.10
2018-07-16T21:09:04.002Z,77.50
2018-07-16T21:11:35.621Z,78.10
2018-07-16T21:14:06.123Z,78.00
2018-07-16T21:16:38.179Z,78.10
2018-07-16T21:19:07.798Z,79.80
2018-07-16T21:21:38.365Z,81.10
2018-07-16T21:24:09.517Z,82.30
2018-07-16T21:26:40.264Z,83.00
2018-07-16T21:29:13.064Z,81.70
2018-07-16T21:31:44.027Z,79.70
2018-07-16T21:34:14.854Z,77.70
2018-07-16T21:36:50.045Z,76.60
2018-07-16T21:39:22.805Z,76.30
2018-07-16T21:41:52.022Z,76.60
2018-07-16T21:44:22.612Z,76.50
2018-07-16T21:46:56.088Z,75.50
2018-07-16T21:49:28.471Z,77.80
2018-07-16T21:51:59.374Z,78.20
2018-07-16T21:54:32.695Z,78.50
2018-07-16T21:57:03.510Z,78.20
2018-07-16T21:59:37.574Z,78.10
2018-07-16T22:02:07.681Z,79.30
2018-07-16T22:04:36.598Z,80.50
2018-07-16T22:07:08.600Z,81.00
2018-07-16T22:09:40.626Z,81.00
2018-07-16T22:12:13.755Z,81.20
2018-07-16T22:14:45.427Z,81.20
2018-07-16T22:17:15.082Z,82.50
2018-07-16T22:19:44.327Z,82.50
2018-07-16T22:22:14.986Z,82.20
2018-07-16T22:24:47.609Z,82.00
2018-07-16T22:27:20.949Z,82.50
2018-07-16T22:29:52.953Z,82.90
2018-07-16T22:32:23.595Z,83.40
2018-07-16T22:37:32.904Z,82.60
2018-07-16T22:40:04.249Z,82.30
2018-07-16T22:42:35.672Z,81.90
2018-07-16T22:45:05.900Z,81.50
2018-07-16T22:47:36.659Z,80.80
2018-07-16T22:50:07.661Z,80.80
2018-07-16T22:52:38.138Z,80.70
2018-07-16T22:55:07.079Z,81.10
2018-07-16T22:57:38.245Z,80.90
2018-07-16T23:00:08.258Z,81.30
2018-07-16T23:02:42.626Z,81.80
2018-07-16T23:05:15.019Z,81.80
2018-07-16T23:07:45.326Z,81.70
2018-07-16T23:10:18.335Z,82.40
2018-07-16T23:12:48.650Z,82.90
2018-07-16T23:15:19.813Z,83.20
2018-07-16T23:17:49.936Z,83.70
2018-07-16T23:20:19.428Z,83.90
2018-07-16T23:22:57.547Z,83.50
2018-07-16T23:25:26.251Z,83.30
2018-07-16T23:27:54.791Z,83.70
2018-07-16T23:30:23.487Z,83.20
2018-07-16T23:32:51.987Z,83.90
2018-07-16T23:35:20.469Z,84.20
2018-07-16T23:37:49.033Z,83.50
2018-07-16T23:40:17.579Z,83.20
2018-07-16T23:42:48.727Z,82.80
2018-07-16T23:45:17.200Z,82.70
2018-07-16T23:47:46.639Z,81.70
2018-07-16T23:50:15.194Z,81.60
2018-07-16T23:52:43.643Z,81.80
2018-07-16T23:55:12.170Z,82.80
2018-07-16T23:57:40.737Z,82.00
